Wrangell Airport Wrangell US
ICAO: PAWG
IATA:
Category: Medium
Scheduled Services:

Elevation: 49 ft
TransAlt. 18000 ft.

Airport Communications:
AWOS 3:128.5
ANCHORAGE CNTR:118
CTAF:122.6
SITKA RDO:122.45

PAWG Zoom In..

If you have problems with the map follow the link
https://www.worldairports.se/pages/airport.php?
ICAO=PAWG

Runways:

(A) RW 10 length 5999 ft width 150 ft
---- / hdg 101

(B) RW 28 length 5999 ft width 150 ft
---- / hdg 281

Location; PAWG
Day. 29 / Time. 10.56 Zulu
* Altimeter: 29.13
* Temperature: 04° c. 39.2°f.
* Wind from: 100° Speed 19 kn with Gusts up to 26 kn.
Dewpoint: 02° c.
Visibility: 6 Statute Miles.
Clouds: Broken 2400 ft.
Clouds: Overcast 3000 ft.
Conditions: Light Rain.Conditions: Mist.

PAWG 291056Z AUTO 10019G26KT 6SM -RA BR BKN024 OVC030 04/02 A2913 RMK AO2 PK WND 09027/1007 SLP864 T00440022 TSNO


Wind From 100°
Speed 19 kn.

 
 
jpsmedia worldairports.se 2020   terms of use